Time;durP1;ratioP1;P1;durP2;ratioP2;P2;SDS_P1;SDS_P2;PMS_P1;PMS_P2;Temp;Humidity;BMP_temperature;BMP_pressure;BME280_temperature;BME280_humidity;BME280_pressure;Samples;Min_cycle;Max_cycle;Signal;HPM_P1;HPM_P2
2022/05/01 00:01:11;;;;;;;7.73;2.97;;;;;;;10.14;63.46;100944.47;5155130;27;20042;-77
2022/05/01 00:03:36;;;;;;;;;;;;;;;10.29;62.81;100945.28;5156030;27;20022;-77
2022/05/01 00:06:05;;;;;;;8.67;2.93;;;;;;;10.27;62.38;100945.47;5155693;27;19914;-77
2022/05/01 00:08:31;;;;;;;8.32;3.03;;;;;;;10.14;62.67;100945.31;5155671;27;20275;-77
2022/05/01 00:10:57;;;;;;;;;;;;;;;10.27;62.60;100940.09;5137625;27;20027;-77
2022/05/01 00:13:23;;;;;;;7.10;3.03;;;;;;;10.06;62.75;100935.47;5136838;27;19963;-77
2022/05/01 00:15:49;;;;;;;8.02;3.72;;;;;;;10.03;62.60;100933.16;5136805;27;20063;-77
2022/05/01 00:18:15;;;;;;;7.85;3.30;;;;;;;9.92;62.70;100930.13;5155624;27;20424;-77
2022/05/01 00:20:40;;;;;;;7.83;3.90;;;;;;;9.95;63.58;100937.81;5155653;27;20117;-77
2022/05/01 00:23:05;;;;;;;8.68;3.45;;;;;;;9.89;63.10;100942.09;5155619;27;20023;-77
2022/05/01 00:25:32;;;;;;;6.63;3.00;;;;;;;10.03;62.52;100933.16;5156086;27;20043;-77
2022/05/01 00:27:58;;;;;;;6.25;2.97;;;;;;;10.01;62.98;100927.13;5155229;27;20468;-77
2022/05/01 00:30:26;;;;;;;7.72;3.30;;;;;;;9.89;63.84;100938.56;5136968;27;20037;-77
2022/05/01 00:38:20;;;;;;;7.07;3.53;;;;;;;10.01;64.10;100929.00;5155159;27;20494;-78
2022/05/01 00:40:45;;;;;;;8.23;3.60;;;;;;;10.06;64.07;100935.47;5154996;27;20030;-77
2022/05/01 00:43:10;;;;;;;8.38;3.83;;;;;;;9.99;64.79;100934.56;5154865;27;20385;-77
2022/05/01 00:45:36;;;;;;;8.63;3.93;;;;;;;10.15;63.65;100938.06;5155767;27;20035;-77
2022/05/01 00:48:01;;;;;;;8.87;4.00;;;;;;;10.14;63.63;100937.22;5154962;27;20035;-77
2022/05/01 00:50:26;;;;;;;10.23;4.20;;;;;;;10.05;64.20;100932.97;5155130;27;20031;-78
2022/05/01 00:52:52;;;;;;;6.53;3.33;;;;;;;9.87;64.55;100936.06;5155196;27;20371;-77
2022/05/01 00:55:18;;;;;;;9.85;3.72;;;;;;;9.97;64.09;100931.22;5155314;27;20031;-77
2022/05/01 00:57:47;;;;;;;9.88;4.43;;;;;;;9.94;64.28;100930.75;5154954;27;20370;-77
2022/05/01 01:00:13;;;;;;;7.82;3.42;;;;;;;9.93;64.50;100921.84;5136680;27;20494;-77
2022/05/01 01:02:39;;;;;;;7.22;3.40;;;;;;;10.01;65.06;100927.13;5136314;27;20022;-77
2022/05/01 01:05:06;;;;;;;6.72;3.42;;;;;;;9.91;64.79;100928.44;5154535;27;20038;-77
2022/05/01 01:07:31;;;;;;;;;;;;;;;9.78;64.51;100918.34;5155334;27;20113;-77
2022/05/01 01:09:56;;;;;;;8.18;3.70;;;;;;;9.85;64.40;100919.28;5154353;27;19942;-77
2022/05/01 01:15:08;;;;;;;7.22;3.42;;;;;;;9.80;64.67;100929.78;5158880;27;20034;-77
2022/05/01 01:17:36;;;;;;;7.93;3.30;;;;;;;9.75;64.71;100922.25;5141932;27;20027;-78
2022/05/01 01:20:08;;;;;;;9.18;3.50;;;;;;;9.70;64.58;100930.03;5159061;27;20385;-77
2022/05/01 01:22:36;;;;;;;8.02;3.28;;;;;;;9.68;64.55;100926.69;5139824;27;20022;-77
2022/05/01 01:25:02;;;;;;;7.72;3.40;;;;;;;9.71;64.56;100923.63;5159096;27;20457;-78
2022/05/01 01:27:27;;;;;;;;;;;;;;;9.78;64.53;100925.59;5160291;27;20365;-78
2022/05/01 01:32:39;;;;;;;7.53;2.97;;;;;;;9.72;64.11;100924.47;5160633;27;20255;-78
2022/05/01 01:35:06;;;;;;;5.97;2.83;;;;;;;9.84;63.74;100930.22;5159619;27;20079;-77
2022/05/01 01:37:33;;;;;;;7.97;3.17;;;;;;;9.75;64.27;100926.78;5159995;27;20537;-77
2022/05/01 01:39:59;;;;;;;7.13;3.53;;;;;;;9.70;64.09;100932.72;5160221;27;20033;-78
2022/05/01 01:42:29;;;;;;;6.38;3.13;;;;;;;9.72;64.52;100925.31;5159575;27;20117;-78
2022/05/01 01:44:54;;;;;;;5.85;3.25;;;;;;;9.63;64.57;100931.81;5159079;27;20090;-78
2022/05/01 01:47:20;;;;;;;7.38;2.90;;;;;;;9.68;64.54;100931.25;5140327;27;20525;-77
2022/05/01 01:49:45;;;;;;;5.47;2.67;;;;;;;9.61;64.51;100931.16;5158655;27;20485;-78
2022/05/01 01:52:10;;;;;;;7.87;3.00;;;;;;;9.82;64.22;100927.72;5140662;27;20464;-78
2022/05/01 01:54:36;;;;;;;9.10;2.93;;;;;;;9.57;64.24;100929.88;5157975;27;20521;-77
2022/05/01 01:57:01;;;;;;;6.17;3.40;;;;;;;9.50;64.75;100933.47;5139131;27;20035;-77
2022/05/01 01:59:27;;;;;;;10.55;4.25;;;;;;;9.37;65.39;100929.59;5159433;27;20026;-77
2022/05/01 02:01:52;;;;;;;6.93;3.03;;;;;;;9.33;65.54;100922.91;5140120;27;20026;-77
2022/05/01 02:04:17;;;;;;;6.30;2.97;;;;;;;9.38;65.43;100927.72;5138957;27;20034;-77
2022/05/01 02:06:43;;;;;;;6.23;3.03;;;;;;;9.47;65.27;100923.94;5139222;27;20023;-77
2022/05/01 02:09:09;;;;;;;9.48;3.45;;;;;;;9.42;65.64;100920.97;5157648;27;20035;-77
2022/05/01 02:11:37;;;;;;;8.10;3.20;;;;;;;9.36;65.21;100927.91;5157557;27;20066;-77
2022/05/01 02:14:03;;;;;;;9.35;3.33;;;;;;;9.40;65.27;100920.31;5157427;27;20066;-77
2022/05/01 02:16:29;;;;;;;;;;;;;;;9.42;65.05;100917.44;5158178;27;20026;-77
2022/05/01 02:18:56;;;;;;;7.78;3.38;;;;;;;9.35;65.46;100918.16;5157390;27;19918;-77
2022/05/01 02:21:36;;;;;;;7.60;3.03;;;;;;;9.30;65.57;100919.75;5158019;27;20038;-77
2022/05/01 02:24:03;;;;;;;10.32;3.90;;;;;;;9.29;65.23;100901.97;5156924;27;20461;-77
2022/05/01 02:26:29;;;;;;;7.80;3.50;;;;;;;9.44;65.18;100912.72;5158196;27;20231;-77
2022/05/01 02:28:54;;;;;;;7.72;3.42;;;;;;;9.36;65.50;100910.94;5158015;27;20160;-77
2022/05/01 02:31:20;;;;;;;6.47;3.33;;;;;;;9.38;65.80;100909.75;5138933;27;20378;-77
2022/05/01 02:33:45;;;;;;;6.60;3.13;;;;;;;9.36;66.10;100906.41;5157535;27;20411;-77
2022/05/01 02:36:10;;;;;;;8.60;3.03;;;;;;;9.36;65.30;100909.09;5157313;27;20026;-77
2022/05/01 02:38:36;;;;;;;6.77;3.53;;;;;;;9.37;65.76;100900.00;5157474;27;20019;-77
2022/05/01 02:41:02;;;;;;;7.40;3.42;;;;;;;9.31;66.41;100906.13;5157340;27;20099;-78
2022/05/01 02:43:28;;;;;;;8.20;3.55;;;;;;;9.26;65.66;100911.22;5138815;27;20026;-77
2022/05/01 02:45:53;;;;;;;8.50;3.22;;;;;;;9.12;66.48;100906.69;5157190;27;20030;-77
2022/05/01 02:48:19;;;;;;;7.60;3.93;;;;;;;9.07;67.11;100906.38;5138782;27;20038;-77
2022/05/01 02:50:44;;;;;;;9.63;3.83;;;;;;;9.04;67.12;100896.81;5157440;27;20094;-77
2022/05/01 02:53:09;;;;;;;6.83;3.37;;;;;;;9.00;67.19;100905.44;5156965;27;20026;-77
2022/05/01 02:55:35;;;;;;;10.13;4.87;;;;;;;8.94;67.48;100896.28;5156586;27;20488;-77
2022/05/01 02:58:00;;;;;;;10.40;4.17;;;;;;;8.91;67.81;100899.31;5138166;27;20023;-77
2022/05/01 03:00:26;;;;;;;6.93;3.03;;;;;;;8.92;67.68;100905.53;5156641;27;20452;-77
2022/05/01 03:02:55;;;;;;;8.00;3.72;;;;;;;8.81;67.76;100898.72;5156935;27;20163;-77
2022/05/01 03:05:21;;;;;;;8.98;4.00;;;;;;;8.80;68.06;100905.09;5138105;27;20428;-76
2022/05/01 03:07:48;;;;;;;8.25;3.10;;;;;;;8.76;68.54;100898.44;5156864;27;20155;-77
2022/05/01 03:10:13;;;;;;;8.98;3.47;;;;;;;8.74;68.36;100896.97;5156641;27;20034;-77
2022/05/01 03:12:39;;;;;;;9.70;3.63;;;;;;;8.75;68.61;100899.47;5156338;27;20042;-77
2022/05/01 03:15:08;;;;;;;8.23;3.43;;;;;;;8.83;68.50;100899.38;5138038;27;20026;-77
2022/05/01 03:23:16;;;;;;;8.35;3.30;;;;;;;8.74;68.78;100891.59;5156105;27;20034;-77
2022/05/01 03:25:41;;;;;;;8.88;3.88;;;;;;;8.72;69.10;100886.38;5156314;27;20030;-77
2022/05/01 03:28:07;;;;;;;7.83;3.83;;;;;;;8.64;69.06;100887.28;5156246;27;20039;-77
2022/05/01 03:30:32;;;;;;;10.50;4.22;;;;;;;8.62;69.75;100886.63;5156168;27;20035;-77
2022/05/01 03:32:57;;;;;;;6.90;3.53;;;;;;;8.57;69.70;100882.84;5156139;27;20038;-77
2022/05/01 03:35:23;;;;;;;8.93;3.93;;;;;;;8.53;70.16;100895.78;5154902;27;20444;-77
2022/05/01 03:37:50;;;;;;;;;;;;;;;8.48;70.35;100884.72;5156654;27;20019;-77
2022/05/01 03:40:16;;;;;;;11.57;4.23;;;;;;;8.48;70.47;100894.63;5156181;27;20302;-77
2022/05/01 03:42:42;;;;;;;10.10;4.25;;;;;;;8.45;70.44;100885.09;5155825;27;20033;-77
2022/05/01 03:45:09;;;;;;;10.57;3.90;;;;;;;8.48;70.74;100884.72;5155667;27;20031;-77
2022/05/01 03:47:34;;;;;;;10.48;3.92;;;;;;;8.44;70.72;100890.63;5137463;27;20027;-77
2022/05/01 03:50:00;;;;;;;8.05;3.75;;;;;;;8.39;71.12;100888.50;5155714;27;20030;-77
2022/05/01 03:52:25;;;;;;;8.43;3.83;;;;;;;8.41;70.49;100889.16;5155774;27;20426;-77
2022/05/01 03:54:51;;;;;;;8.23;3.58;;;;;;;8.41;71.00;100888.34;5156084;27;20461;-77
2022/05/01 03:57:16;;;;;;;7.53;3.87;;;;;;;8.40;70.69;100895.56;5155232;27;20049;-77
2022/05/01 03:59:41;;;;;;;7.87;3.40;;;;;;;8.48;71.16;100889.28;5155762;27;20429;-77
2022/05/01 04:02:06;;;;;;;8.57;3.50;;;;;;;8.39;71.04;100890.34;5155439;27;20066;-77
2022/05/01 04:04:32;;;;;;;11.53;4.00;;;;;;;8.34;71.01;100886.34;5155563;27;20022;-77
2022/05/01 04:06:57;;;;;;;9.37;3.80;;;;;;;8.44;70.94;100888.78;5155624;27;20034;-77
2022/05/01 04:09:24;;;;;;;8.90;3.93;;;;;;;8.39;70.79;100887.69;5155178;27;20448;-77
2022/05/01 04:11:52;;;;;;;9.60;3.60;;;;;;;8.32;71.02;100893.75;5155649;27;20264;-77
2022/05/01 04:14:18;;;;;;;9.48;3.72;;;;;;;8.31;71.18;100894.72;5155156;27;20022;-77
2022/05/01 04:16:43;;;;;;;8.57;3.77;;;;;;;8.27;71.30;100898.78;5155216;27;20046;-76
2022/05/01 04:19:11;;;;;;;11.48;4.22;;;;;;;8.28;71.62;100891.56;5154904;27;20105;-77
2022/05/01 04:21:37;;;;;;;8.88;3.72;;;;;;;8.30;71.17;100894.91;5155332;27;20473;-76
2022/05/01 04:24:03;;;;;;;8.90;3.72;;;;;;;8.27;70.75;100887.19;5155435;27;20023;-77
2022/05/01 04:26:28;;;;;;;7.47;3.60;;;;;;;8.25;70.73;100889.22;5155119;27;20131;-77
2022/05/01 04:31:37;;;;;;;8.82;4.10;;;;;;;8.16;70.81;100899.19;5154717;27;20034;-76
2022/05/01 04:34:02;;;;;;;7.13;3.17;;;;;;;8.32;70.50;100896.44;5154741;27;20034;-76
2022/05/01 04:36:28;;;;;;;7.57;3.30;;;;;;;8.19;70.28;100901.53;5154587;27;20014;-77
2022/05/01 04:38:53;;;;;;;7.50;3.07;;;;;;;8.17;70.41;100887.44;5154623;27;20117;-77
2022/05/01 04:41:19;;;;;;;9.32;3.72;;;;;;;8.17;70.62;100894.66;5154923;27;20030;-76
2022/05/01 04:43:44;;;;;;;7.97;3.47;;;;;;;8.14;70.67;100889.66;5155143;27;20030;-77
2022/05/01 04:46:09;;;;;;;6.97;3.33;;;;;;;8.35;70.22;100893.41;5154824;27;20339;-77
2022/05/01 04:48:35;;;;;;;7.93;3.13;;;;;;;8.27;69.28;100893.41;5154497;27;20069;-77
2022/05/01 04:51:00;;;;;;;6.83;3.00;;;;;;;8.26;68.51;100889.06;5136287;27;20022;-76
2022/05/01 04:53:26;;;;;;;7.60;3.50;;;;;;;8.12;69.35;100891.66;5154459;27;20398;-77
2022/05/01 04:55:52;;;;;;;9.60;3.42;;;;;;;8.10;68.72;100893.69;5154376;27;20046;-77
2022/05/01 04:58:20;;;;;;;7.85;3.55;;;;;;;8.16;68.28;100895.69;5154195;27;20122;-76
2022/05/01 05:00:46;;;;;;;8.25;3.92;;;;;;;8.10;68.60;100902.59;5154286;27;20068;-76
2022/05/01 05:03:12;;;;;;;11.88;4.20;;;;;;;8.13;68.95;100898.72;5154508;27;20109;-76
2022/05/01 05:05:38;;;;;;;11.95;4.10;;;;;;;8.21;68.33;100899.50;5154478;27;20529;-76
2022/05/01 05:10:49;;;;;;;10.85;3.92;;;;;;;8.35;68.34;100901.47;5154593;27;20140;-76
2022/05/01 05:13:16;;;;;;;9.98;3.85;;;;;;;8.50;67.80;100900.66;5136209;27;20101;-77
2022/05/01 05:15:42;;;;;;;9.95;3.95;;;;;;;8.57;67.66;100904.31;5154473;27;20027;-76
2022/05/01 05:18:08;;;;;;;9.70;3.63;;;;;;;8.64;67.33;100906.09;5154524;27;20049;-76
2022/05/01 05:20:33;;;;;;;9.00;3.60;;;;;;;8.67;66.72;100907.59;5154292;27;20352;-76
2022/05/01 05:22:58;;;;;;;7.47;3.50;;;;;;;8.72;66.54;100904.38;5154626;27;20321;-77
2022/05/01 05:25:24;;;;;;;7.27;3.10;;;;;;;8.73;66.79;100906.03;5135831;27;20791;-76
2022/05/01 05:27:49;;;;;;;10.60;3.23;;;;;;;8.51;67.13;100908.56;5154705;27;20042;-76
2022/05/01 05:30:14;;;;;;;8.43;3.58;;;;;;;8.47;67.41;100909.91;5154766;27;20037;-76
2022/05/01 05:32:40;;;;;;;5.90;2.83;;;;;;;8.59;67.15;100908.50;5154410;27;20031;-76
2022/05/01 05:35:06;;;;;;;8.23;3.80;;;;;;;8.59;67.05;100907.66;5154414;27;20244;-76
2022/05/01 05:37:31;;;;;;;11.48;3.45;;;;;;;8.64;66.61;100918.69;5154091;27;20072;-77
2022/05/01 05:39:57;;;;;;;6.80;3.30;;;;;;;8.65;66.35;100920.34;5154308;27;20027;-77
2022/05/01 05:42:22;;;;;;;6.77;3.00;;;;;;;8.84;66.17;100910.97;5154269;27;20372;-77
2022/05/01 05:44:48;;;;;;;7.80;3.30;;;;;;;8.95;64.53;100913.22;5154035;27;20027;-77
2022/05/01 05:47:13;;;;;;;7.45;3.22;;;;;;;9.03;63.93;100916.66;5154320;27;20023;-76
2022/05/01 05:49:38;;;;;;;6.07;2.87;;;;;;;9.09;64.78;100917.78;5154085;27;20196;-77
2022/05/01 05:52:04;;;;;;;8.93;3.00;;;;;;;9.27;64.14;100909.38;5154117;27;20587;-77
2022/05/01 05:54:29;;;;;;;7.88;2.92;;;;;;;9.46;63.71;100910.69;5154368;27;20497;-77
2022/05/01 05:56:55;;;;;;;8.57;3.87;;;;;;;9.69;63.09;100911.38;5135205;27;20047;-77
2022/05/01 05:59:20;;;;;;;7.72;3.65;;;;;;;9.80;62.75;100913.63;5155487;27;20084;-76
2022/05/01 06:01:45;;;;;;;5.70;2.67;;;;;;;9.68;62.50;100918.63;5158369;27;20030;-77
2022/05/01 06:04:11;;;;;;;5.43;2.70;;;;;;;9.68;62.15;100921.31;5157762;27;20027;-76
2022/05/01 06:06:36;;;;;;;6.53;2.70;;;;;;;9.70;62.45;100929.19;5158109;27;20042;-76
2022/05/01 06:09:02;;;;;;;6.55;3.15;;;;;;;9.51;63.03;100921.69;5157877;27;20033;-76
2022/05/01 06:11:27;;;;;;;7.32;3.60;;;;;;;9.51;62.70;100925.22;5157953;27;20034;-76
2022/05/01 06:13:53;;;;;;;6.17;2.73;;;;;;;9.43;63.46;100922.63;5158307;27;20118;-76
2022/05/01 06:16:18;;;;;;;6.07;2.83;;;;;;;9.50;62.99;100923.53;5157984;27;20026;-76
2022/05/01 06:18:44;;;;;;;7.05;3.08;;;;;;;9.60;62.49;100924.13;5158327;27;20050;-76
2022/05/01 06:21:09;;;;;;;7.13;3.50;;;;;;;9.63;62.39;100925.59;5158227;27;20042;-76
2022/05/01 06:23:37;;;;;;;10.83;4.60;;;;;;;9.42;62.29;100929.03;5158541;27;20328;-77
2022/05/01 06:26:04;;;;;;;8.23;4.20;;;;;;;9.30;61.97;100931.34;5158231;27;20027;-76
2022/05/01 06:28:30;;;;;;;7.03;3.47;;;;;;;9.22;63.14;100927.91;5158721;27;20042;-77
2022/05/01 06:30:58;;;;;;;8.02;3.65;;;;;;;9.31;63.50;100935.72;5164410;27;20037;-76
2022/05/01 06:33:24;;;;;;;7.47;3.42;;;;;;;9.65;62.30;100928.94;5162445;27;20114;-76
2022/05/01 06:35:52;;;;;;;6.78;3.35;;;;;;;10.37;60.12;100926.31;5168129;27;20369;-76
2022/05/01 06:38:18;;;;;;;7.70;3.13;;;;;;;10.58;57.99;100928.16;5163733;27;20031;-77
2022/05/01 06:40:44;;;;;;;6.50;3.05;;;;;;;10.58;58.44;100933.56;5159886;27;20030;-77
2022/05/01 06:43:10;;;;;;;9.32;3.28;;;;;;;11.17;57.46;100938.63;5159704;27;20065;-76
2022/05/01 06:45:36;;;;;;;7.78;2.97;;;;;;;11.07;57.51;100930.91;5158755;27;20030;-77
2022/05/01 06:48:01;;;;;;;9.23;3.67;;;;;;;11.13;57.00;100939.03;5158312;27;20033;-77
2022/05/01 06:50:28;;;;;;;7.07;2.80;;;;;;;11.00;57.56;100924.63;5158006;27;20106;-77
2022/05/01 06:52:53;;;;;;;7.80;3.50;;;;;;;10.26;59.87;100940.28;5157653;27;20019;-77
2022/05/01 06:55:19;;;;;;;7.05;3.17;;;;;;;9.98;60.69;100932.91;5138894;27;20094;-77
2022/05/01 06:57:45;;;;;;;7.70;3.05;;;;;;;9.75;62.08;100930.31;5157936;27;20047;-76
2022/05/01 07:00:11;;;;;;;7.57;3.80;;;;;;;9.50;62.76;100933.47;5157257;27;20030;-77
2022/05/01 07:02:43;;;;;;;;;;;;;;;9.64;62.64;100943.41;5160952;27;20031;-78
2022/05/01 07:05:08;;;;;;;6.28;3.33;;;;;;;9.28;63.16;100938.78;5160793;27;20253;-78
2022/05/01 07:07:34;;;;;;;8.63;3.67;;;;;;;9.12;64.13;100935.41;5159579;27;20452;-78
2022/05/01 07:09:59;;;;;;;8.27;3.17;;;;;;;9.19;63.74;100939.84;5157459;27;20034;-77
2022/05/01 07:12:24;;;;;;;6.33;3.27;;;;;;;9.07;63.95;100938.63;5159056;27;20035;-77
2022/05/01 07:14:50;;;;;;;6.70;3.60;;;;;;;9.08;64.36;100934.94;5156673;27;20030;-76
2022/05/01 07:17:15;;;;;;;7.85;3.33;;;;;;;9.05;63.95;100940.69;5157545;27;20095;-78
2022/05/01 07:19:40;;;;;;;8.97;3.50;;;;;;;9.21;63.34;100937.00;5157542;27;20030;-78
2022/05/01 07:22:05;;;;;;;8.17;3.70;;;;;;;9.15;63.50;100935.84;5157108;27;20046;-77
2022/05/01 07:24:31;;;;;;;7.53;3.40;;;;;;;9.32;63.13;100931.16;5156892;27;20547;-76
2022/05/01 07:26:56;;;;;;;5.33;2.70;;;;;;;9.29;63.38;100931.53;5156620;27;20031;-78
2022/05/01 07:29:21;;;;;;;6.73;2.77;;;;;;;9.43;63.40;100930.72;5157001;27;20106;-77
2022/05/01 07:31:46;;;;;;;7.40;3.13;;;;;;;9.64;63.22;100935.34;5156395;27;20075;-76
2022/05/01 07:34:12;;;;;;;7.17;2.93;;;;;;;9.61;62.80;100933.03;5156724;27;20499;-77
2022/05/01 07:36:37;;;;;;;7.83;3.13;;;;;;;9.43;63.51;100936.09;5157128;27;20031;-78
2022/05/01 07:39:03;;;;;;;7.75;3.25;;;;;;;9.63;62.77;100936.38;5156770;27;20133;-76
2022/05/01 07:41:29;;;;;;;5.75;2.90;;;;;;;9.59;63.30;100937.75;5156892;27;20029;-77
2022/05/01 07:43:57;;;;;;;8.52;3.75;;;;;;;9.69;62.57;100939.13;5156228;27;20030;-77
2022/05/01 07:46:22;;;;;;;7.63;2.50;;;;;;;9.99;62.45;100942.66;5156483;27;20030;-76
2022/05/01 07:48:48;;;;;;;7.63;3.67;;;;;;;10.05;61.69;100939.19;5156278;27;20427;-77
2022/05/01 07:51:16;;;;;;;8.35;3.28;;;;;;;10.22;61.59;100945.19;5155770;27;20395;-75
2022/05/01 07:53:42;;;;;;;8.65;3.35;;;;;;;10.01;61.24;100943.28;5155941;27;20065;-76
2022/05/01 07:56:07;;;;;;;8.53;3.53;;;;;;;10.21;61.62;100940.03;5155580;27;20125;-77
2022/05/01 07:58:33;;;;;;;7.23;3.20;;;;;;;10.12;60.78;100936.56;5155834;27;20105;-77
2022/05/01 08:01:01;;;;;;;6.18;3.17;;;;;;;10.20;61.25;100935.66;5156051;27;20058;-77
2022/05/01 08:06:12;;;;;;;6.13;3.10;;;;;;;10.60;60.58;100935.03;5156040;27;20037;-74
2022/05/01 08:08:37;;;;;;;8.10;3.92;;;;;;;10.76;59.05;100937.47;5155931;27;20027;-74
2022/05/01 08:11:08;;;;;;;6.50;3.30;;;;;;;10.85;59.19;100938.19;5136992;27;20091;-74
2022/05/01 08:13:33;;;;;;;6.85;3.42;;;;;;;10.85;59.12;100940.06;5137157;27;20038;-74
2022/05/01 08:15:58;;;;;;;7.38;3.10;;;;;;;11.10;60.12;100939.44;5155954;27;20425;-74
2022/05/01 08:21:08;;;;;;;6.75;3.22;;;;;;;10.81;59.47;100938.75;5155100;27;20060;-74
2022/05/01 08:23:41;;;;;;;7.53;3.50;;;;;;;11.19;58.11;100937.41;5155483;27;20377;-74
2022/05/01 08:26:07;;;;;;;7.78;3.33;;;;;;;11.41;58.61;100935.50;5155423;27;20027;-74
2022/05/01 08:28:35;;;;;;;6.57;3.33;;;;;;;11.79;57.08;100933.25;5155575;27;20033;-74
2022/05/01 08:31:00;;;;;;;7.78;3.25;;;;;;;12.07;56.11;100941.25;5136785;27;20069;-74
2022/05/01 08:33:26;;;;;;;6.25;2.65;;;;;;;12.05;56.28;100938.75;5155765;27;20042;-74
2022/05/01 08:35:52;;;;;;;6.38;2.83;;;;;;;12.29;56.53;100936.56;5155358;27;20380;-74
2022/05/01 08:38:18;;;;;;;7.95;3.72;;;;;;;12.61;55.10;100935.81;5155059;27;20023;-74
2022/05/01 08:40:49;;;;;;;7.18;2.97;;;;;;;12.52;54.74;100924.38;5154939;27;20050;-74
2022/05/01 08:43:17;;;;;;;7.82;3.35;;;;;;;12.28;55.10;100929.50;5136579;27;20044;-74
2022/05/01 08:45:59;;;;;;;8.65;3.10;;;;;;;12.37;54.71;100922.84;5154860;27;20046;-75
2022/05/01 08:48:37;;;;;;;7.57;2.90;;;;;;;12.73;54.81;100931.44;5154835;27;20054;-74
2022/05/01 08:51:04;;;;;;;6.55;3.30;;;;;;;12.46;54.69;100930.59;5154792;27;20509;-74
2022/05/01 08:53:31;;;;;;;6.93;3.47;;;;;;;12.51;54.26;100932.69;5154664;27;20038;-74
2022/05/01 08:55:56;;;;;;;6.65;3.30;;;;;;;12.54;54.14;100926.03;5154427;27;20070;-75
2022/05/01 08:58:23;;;;;;;8.20;3.38;;;;;;;12.26;54.61;100928.88;5154780;27;20054;-74
2022/05/01 09:00:51;;;;;;;8.43;3.90;;;;;;;12.34;54.15;100932.22;5136589;27;20540;-74
2022/05/01 09:03:17;;;;;;;7.57;3.30;;;;;;;12.50;54.86;100922.91;5155178;27;20027;-74
2022/05/01 09:05:43;;;;;;;6.82;3.30;;;;;;;12.88;54.44;100931.28;5155043;27;20042;-75
2022/05/01 09:08:09;;;;;;;6.60;3.10;;;;;;;13.03;54.22;100929.19;5154695;27;20480;-75
2022/05/01 09:10:34;;;;;;;6.05;2.92;;;;;;;13.27;52.86;100930.41;5154864;27;20050;-74
2022/05/01 09:12:59;;;;;;;8.17;3.43;;;;;;;13.39;53.06;100936.06;5154613;27;20066;-74
2022/05/01 09:15:33;;;;;;;6.23;3.23;;;;;;;13.19;51.24;100941.47;5154666;27;20267;-73
2022/05/01 09:18:08;;;;;;;8.02;3.45;;;;;;;12.68;53.17;100935.81;5154752;27;20472;-74
2022/05/01 09:20:57;;;;;;;7.33;3.63;;;;;;;12.60;52.86;100931.44;5154588;27;20495;-73
2022/05/01 09:23:44;;;;;;;5.97;2.90;;;;;;;12.69;53.86;100932.09;5154445;27;20099;-74
2022/05/01 09:26:11;;;;;;;7.90;3.35;;;;;;;12.89;53.67;100929.41;5154682;27;20034;-74
2022/05/01 09:28:46;;;;;;;8.23;4.10;;;;;;;12.85;54.65;100932.50;5154304;27;20034;-74
2022/05/01 09:31:11;;;;;;;6.65;3.58;;;;;;;12.86;53.73;100930.63;5154408;27;20407;-74
2022/05/01 09:33:36;;;;;;;7.78;3.45;;;;;;;12.77;53.70;100932.69;5156655;27;20055;-75
2022/05/01 09:36:02;;;;;;;7.17;3.80;;;;;;;12.80;52.63;100931.47;5159031;27;20030;-74
2022/05/01 09:38:27;;;;;;;5.93;2.92;;;;;;;12.95;53.46;100933.94;5158703;27;20306;-74
2022/05/01 09:41:01;;;;;;;6.43;3.07;;;;;;;12.82;52.81;100932.91;5140017;27;20089;-74
2022/05/01 09:43:47;;;;;;;6.90;3.00;;;;;;;12.52;52.44;100931.66;5158243;27;20255;-74
2022/05/01 09:46:19;;;;;;;5.85;3.30;;;;;;;12.66;52.30;100937.91;5158225;27;20034;-73
2022/05/01 09:48:58;;;;;;;7.43;3.97;;;;;;;12.16;53.70;100940.06;5158122;27;20114;-75
2022/05/01 09:51:24;;;;;;;5.70;3.20;;;;;;;12.04;52.47;100936.25;5158352;27;20427;-74
2022/05/01 09:53:50;;;;;;;5.25;3.00;;;;;;;12.05;54.09;100935.22;5158324;27;20034;-74
2022/05/01 09:56:15;;;;;;;6.28;3.33;;;;;;;12.17;54.34;100933.63;5139467;27;20047;-74
2022/05/01 09:58:43;;;;;;;6.53;3.10;;;;;;;12.53;54.01;100930.59;5158076;27;20087;-74
2022/05/01 10:01:10;;;;;;;7.93;3.80;;;;;;;12.61;52.62;100929.56;5158258;27;20054;-74
2022/05/01 10:03:39;;;;;;;6.53;3.00;;;;;;;12.63;53.09;100927.50;5139502;27;20147;-73
2022/05/01 10:06:07;;;;;;;5.95;2.92;;;;;;;12.52;53.17;100927.06;5157775;27;20035;-73
2022/05/01 10:08:36;;;;;;;5.88;2.83;;;;;;;12.70;54.03;100926.47;5157770;27;20085;-74
2022/05/01 10:11:02;;;;;;;7.85;2.97;;;;;;;12.41;51.66;100924.94;5157586;27;20427;-73
2022/05/01 10:13:28;;;;;;;6.68;3.42;;;;;;;12.64;51.06;100929.16;5157530;27;20524;-74
2022/05/01 10:15:54;;;;;;;6.93;3.13;;;;;;;12.52;52.05;100927.06;5138954;27;20180;-73
2022/05/01 10:18:22;;;;;;;6.47;3.08;;;;;;;12.61;51.68;100925.00;5157490;27;20035;-73
2022/05/01 10:20:48;;;;;;;6.57;2.97;;;;;;;12.62;52.16;100921.25;5139251;27;20109;-73
2022/05/01 10:23:14;;;;;;;6.90;3.25;;;;;;;12.55;52.03;100922.25;5157394;27;20109;-73
2022/05/01 10:26:00;;;;;;;7.45;3.28;;;;;;;12.50;52.33;100923.72;5157496;27;20058;-73
2022/05/01 10:28:41;;;;;;;6.90;3.20;;;;;;;12.41;52.25;100921.41;5157451;27;20457;-73
2022/05/01 10:34:34;;;;;;;6.82;3.13;;;;;;;12.87;51.34;100916.06;5157398;27;20041;-73
2022/05/01 10:37:11;;;;;;;6.32;3.33;;;;;;;12.63;51.63;100908.56;5157054;27;20138;-73
2022/05/01 10:39:38;;;;;;;7.22;3.13;;;;;;;12.48;51.88;100903.34;5156832;27;20102;-73
2022/05/01 10:42:04;;;;;;;7.10;2.88;;;;;;;12.48;51.32;100906.06;5157276;27;20095;-75
2022/05/01 10:44:35;;;;;;;6.38;3.00;;;;;;;12.90;50.34;100904.00;5156548;27;20026;-73
2022/05/01 10:47:13;;;;;;;7.40;3.53;;;;;;;12.97;50.01;100899.41;5157139;27;20038;-73
2022/05/01 10:49:44;;;;;;;7.03;3.15;;;;;;;12.82;49.84;100902.34;5157750;27;20033;-73
2022/05/01 10:52:20;;;;;;;6.82;3.35;;;;;;;12.86;49.74;100898.19;5157436;27;20044;-74
2022/05/01 10:55:00;;;;;;;6.10;2.92;;;;;;;12.79;49.81;100895.47;5157004;27;20102;-75
2022/05/01 10:57:25;;;;;;;10.70;3.70;;;;;;;12.67;50.11;100889.03;5156824;27;20461;-73
2022/05/01 11:00:04;;;;;;;5.40;3.08;;;;;;;13.00;49.08;100885.47;5138625;27;20033;-72
2022/05/01 11:02:35;;;;;;;6.97;3.08;;;;;;;13.21;48.73;100888.00;5156567;27;20037;-72
2022/05/01 11:05:01;;;;;;;8.00;2.90;;;;;;;13.39;47.33;100881.91;5156434;27;20030;-71
2022/05/01 11:07:28;;;;;;;6.13;3.38;;;;;;;13.41;46.99;100879.84;5156883;27;20027;-72
2022/05/01 11:09:56;;;;;;;8.60;3.42;;;;;;;13.32;46.37;100871.09;5156874;27;20034;-73
2022/05/01 11:12:24;;;;;;;6.82;2.85;;;;;;;13.36;46.98;100879.63;5156808;27;20027;-72
2022/05/01 11:14:54;;;;;;;5.60;2.85;;;;;;;13.51;47.99;100878.34;5156542;27;20030;-72
2022/05/01 11:17:36;;;;;;;6.40;3.03;;;;;;;13.63;48.47;100869.53;5156811;27;20058;-72
2022/05/01 11:20:08;;;;;;;5.88;3.00;;;;;;;13.94;47.88;100864.22;5156453;27;20023;-72
2022/05/01 11:22:35;;;;;;;4.68;2.65;;;;;;;13.92;47.30;100865.47;5138243;27;20030;-72
2022/05/01 11:25:00;;;;;;;;;;;;;;;14.14;46.85;100861.41;5157025;27;20087;-72
2022/05/01 11:27:26;;;;;;;6.18;2.88;;;;;;;14.28;46.84;100864.84;5156956;27;19911;-73
2022/05/01 11:30:26;;;;;;;8.57;3.60;;;;;;;14.19;46.17;100862.38;5156300;27;20461;-73
2022/05/01 11:33:00;;;;;;;5.22;2.58;;;;;;;14.30;46.74;100860.03;5101511;27;20052;-73
2022/05/01 11:35:58;;;;;;;7.13;3.00;;;;;;;14.18;45.69;100857.19;5156450;27;20031;-77
2022/05/01 11:38:49;;;;;;;;;;;;;;;14.29;45.72;100855.66;5136290;27;20063;-72
2022/05/01 11:41:15;;;;;;;9.52;2.67;;;;;;;14.36;46.91;100851.84;5137765;27;19965;-71
2022/05/01 11:43:40;;;;;;;6.03;2.83;;;;;;;14.50;45.49;100844.50;5156483;27;20197;-71
2022/05/01 11:46:17;;;;;;;6.73;2.80;;;;;;;14.37;46.70;100842.66;5155987;27;20077;-72
2022/05/01 11:48:42;;;;;;;6.60;3.00;;;;;;;14.43;44.59;100841.81;5156090;27;20248;-73
2022/05/01 11:51:09;;;;;;;7.72;3.00;;;;;;;14.58;44.66;100841.50;5137623;27;20525;-73
2022/05/01 11:53:38;;;;;;;5.97;2.83;;;;;;;14.66;43.96;100832.28;5156233;27;20141;-73
2022/05/01 12:04:57;;;;;;;6.35;3.15;;;;;;;14.64;45.20;100821.66;5071745;28;20485;-76
2022/05/01 12:07:23;;;;;;;6.40;3.28;;;;;;;14.81;45.12;100821.91;5071983;28;20044;-76
2022/05/01 12:09:51;;;;;;;6.00;2.80;;;;;;;14.98;45.49;100824.88;5114084;27;20042;-76
2022/05/01 12:12:19;;;;;;;7.47;3.15;;;;;;;14.69;45.33;100812.84;5155638;27;20051;-76